createdAt,value
2018-07-05T00:05:13.786Z,95525.00
2018-07-05T00:10:54.220Z,95523.00
2018-07-05T00:16:40.518Z,95518.00
2018-07-05T00:22:26.830Z,95518.00
2018-07-05T00:28:13.088Z,95535.00
2018-07-05T00:33:59.448Z,95523.00
2018-07-05T00:39:45.614Z,95524.00
2018-07-05T00:45:31.700Z,95534.00
2018-07-05T00:51:18.069Z,95528.00
2018-07-05T00:57:04.405Z,95510.00
2018-07-05T01:02:50.711Z,95499.00
2018-07-05T01:08:37.085Z,95498.00
2018-07-05T01:14:23.316Z,95494.00
2018-07-05T01:20:09.474Z,95492.00
2018-07-05T01:25:55.501Z,95498.00
2018-07-05T01:31:41.873Z,95498.00
2018-07-05T01:37:27.916Z,95494.00
2018-07-05T01:43:14.129Z,95499.00
2018-07-05T01:49:00.343Z,95489.00
2018-07-05T01:54:46.887Z,95495.00
2018-07-05T02:00:33.126Z,95492.00
2018-07-05T02:06:19.202Z,95501.00
2018-07-05T02:12:05.503Z,95499.00
2018-07-05T02:17:51.604Z,95491.00
2018-07-05T02:23:37.859Z,95483.00
2018-07-05T02:29:24.011Z,95481.00
2018-07-05T02:35:10.196Z,95499.00
2018-07-05T02:40:56.475Z,95492.00
2018-07-05T02:46:42.874Z,95492.00
2018-07-05T02:52:29.258Z,95484.00
2018-07-05T02:58:15.484Z,95480.00
2018-07-05T03:04:01.621Z,95478.00
2018-07-05T03:09:47.749Z,95473.00
2018-07-05T03:15:34.045Z,95464.00
2018-07-05T03:21:20.352Z,95472.00
2018-07-05T03:27:06.543Z,95465.00
2018-07-05T03:32:52.806Z,95475.00
2018-07-05T03:38:39.008Z,95473.00
2018-07-05T03:44:25.330Z,95472.00
2018-07-05T03:50:11.533Z,95477.00
2018-07-05T03:55:58.011Z,95467.00
2018-07-05T04:01:44.523Z,95466.00
2018-07-05T04:07:30.661Z,95465.00
2018-07-05T04:13:16.936Z,95469.00
2018-07-05T04:19:03.181Z,95468.00
2018-07-05T04:24:49.315Z,95466.00
2018-07-05T04:30:35.517Z,95464.00
2018-07-05T04:36:22.000Z,95471.00
2018-07-05T04:42:08.305Z,95465.00
2018-07-05T04:47:54.563Z,95459.00
2018-07-05T04:53:41.822Z,95460.00
2018-07-05T04:59:21.973Z,95459.00
2018-07-05T05:05:08.101Z,95463.00
2018-07-05T05:10:54.872Z,95473.00
2018-07-05T05:16:41.033Z,95483.00
2018-07-05T05:22:27.525Z,95492.00
2018-07-05T05:28:07.866Z,95487.00
2018-07-05T05:33:54.027Z,95485.00
2018-07-05T05:39:40.422Z,95484.00
2018-07-05T05:45:26.836Z,95496.00
2018-07-05T05:51:13.228Z,95492.00
2018-07-05T05:56:59.601Z,95487.00
2018-07-05T06:02:45.894Z,95481.00
2018-07-05T06:08:31.953Z,95488.00
2018-07-05T06:14:18.091Z,95497.00
2018-07-05T06:20:04.216Z,95492.00
2018-07-05T06:25:50.574Z,95498.00
2018-07-05T06:31:36.770Z,95496.00
2018-07-05T06:37:23.027Z,95496.00
2018-07-05T06:43:09.341Z,95489.00
2018-07-05T06:48:55.505Z,95494.00
2018-07-05T06:54:41.904Z,95492.00
2018-07-05T07:00:28.357Z,95497.00
2018-07-05T07:06:08.605Z,95496.00
2018-07-05T07:11:54.809Z,95501.00
2018-07-05T07:17:41.076Z,95510.00
2018-07-05T07:23:27.338Z,95515.00
2018-07-05T07:29:13.677Z,95512.00
2018-07-05T07:34:59.927Z,95515.00
2018-07-05T07:40:46.396Z,95514.00
2018-07-05T07:46:14.184Z,95516.00
2018-07-05T07:51:41.878Z,95515.00
2018-07-05T07:57:09.475Z,95511.00
2018-07-05T08:02:37.118Z,95510.00
2018-07-05T08:08:04.938Z,95507.00
2018-07-05T08:13:32.516Z,95509.00
2018-07-05T08:19:00.115Z,95506.00
2018-07-05T08:24:27.745Z,95506.00
2018-07-05T08:29:55.622Z,95501.00
2018-07-05T08:35:23.218Z,95496.00
2018-07-05T08:40:50.855Z,95486.00
2018-07-05T08:46:18.474Z,95484.00
2018-07-05T08:51:46.123Z,95477.00
2018-07-05T08:57:13.743Z,95476.00
2018-07-05T09:02:41.524Z,95476.00
2018-07-05T09:08:09.166Z,95479.00
2018-07-05T09:13:36.813Z,95472.00
2018-07-05T09:19:04.548Z,95478.00
2018-07-05T09:24:32.160Z,95480.00
2018-07-05T09:29:59.792Z,95482.00
2018-07-05T09:35:27.660Z,95476.00
2018-07-05T09:40:55.275Z,95475.00
2018-07-05T09:46:22.878Z,95469.00
2018-07-05T09:51:50.681Z,95466.00
2018-07-05T09:57:18.321Z,95450.00
2018-07-05T10:02:45.961Z,95462.00
2018-07-05T10:08:14.303Z,95440.00
2018-07-05T10:13:42.096Z,95438.00
2018-07-05T10:19:09.582Z,95443.00
2018-07-05T10:24:37.345Z,95444.00
2018-07-05T10:30:23.768Z,95443.00
2018-07-05T10:35:51.405Z,95427.00
2018-07-05T10:41:31.898Z,95434.00
2018-07-05T10:47:18.039Z,95423.00
2018-07-05T10:53:04.316Z,95421.00
2018-07-05T10:58:50.692Z,95413.00
2018-07-05T11:04:37.084Z,95409.00
2018-07-05T11:10:23.333Z,95407.00
2018-07-05T11:16:09.629Z,95402.00
2018-07-05T11:21:55.679Z,95404.00
2018-07-05T11:27:41.953Z,95401.00
2018-07-05T11:33:28.240Z,95403.00
2018-07-05T11:39:14.626Z,95396.00
2018-07-05T11:45:00.795Z,95398.00
2018-07-05T11:50:46.957Z,95393.00
2018-07-05T11:56:33.260Z,95392.00
2018-07-05T12:02:19.342Z,95396.00
2018-07-05T12:08:05.603Z,95392.00
2018-07-05T12:13:51.841Z,95390.00
2018-07-05T12:19:38.093Z,95393.00
2018-07-05T12:25:24.335Z,95396.00
2018-07-05T12:31:10.409Z,95396.00
2018-07-05T12:36:56.743Z,95379.00
2018-07-05T12:42:42.802Z,95380.00
2018-07-05T12:48:28.969Z,95387.00
2018-07-05T12:54:15.229Z,95383.00
2018-07-05T13:00:01.556Z,95378.00
2018-07-05T13:05:47.838Z,95379.00
2018-07-05T13:11:33.938Z,95391.00
2018-07-05T13:17:20.464Z,95403.00
2018-07-05T13:23:06.919Z,95396.00
2018-07-05T13:28:53.358Z,95411.00
2018-07-05T13:34:39.629Z,95417.00
2018-07-05T13:40:19.773Z,95418.00
2018-07-05T13:46:06.171Z,95424.00
2018-07-05T13:51:52.594Z,95426.00
2018-07-05T13:57:33.178Z,95435.00
2018-07-05T14:03:19.449Z,95449.00
2018-07-05T14:09:05.475Z,95450.00
2018-07-05T14:14:51.501Z,95459.00
2018-07-05T14:20:37.731Z,95458.00
2018-07-05T14:26:23.999Z,95449.00
2018-07-05T14:32:10.346Z,95432.00
2018-07-05T14:37:56.714Z,95448.00
2018-07-05T14:43:43.135Z,95463.00
2018-07-05T14:49:29.277Z,95478.00
2018-07-05T14:55:15.579Z,95479.00
2018-07-05T15:01:01.964Z,95492.00
2018-07-05T15:06:48.156Z,95488.00
2018-07-05T15:12:34.536Z,95485.00
2018-07-05T15:18:20.687Z,95491.00
2018-07-05T15:24:06.987Z,95486.00
2018-07-05T15:29:53.220Z,95475.00
2018-07-05T15:35:39.566Z,95473.00
2018-07-05T15:41:25.887Z,95474.00
2018-07-05T15:47:12.197Z,95480.00
2018-07-05T15:52:58.491Z,95479.00
2018-07-05T15:58:44.625Z,95486.00
2018-07-05T16:04:31.073Z,95489.00
2018-07-05T16:10:17.284Z,95491.00
2018-07-05T16:16:03.446Z,95497.00
2018-07-05T16:21:49.821Z,95505.00
2018-07-05T16:27:36.121Z,95514.00
2018-07-05T16:33:22.442Z,95518.00
2018-07-05T16:39:08.560Z,95512.00
2018-07-05T16:44:54.800Z,95517.00
2018-07-05T16:50:41.021Z,95510.00
2018-07-05T16:56:27.036Z,95510.00
2018-07-05T17:02:14.611Z,95514.00
2018-07-05T17:08:00.816Z,95509.00
2018-07-05T17:13:47.094Z,95526.00
2018-07-05T17:19:33.257Z,95529.00
2018-07-05T17:25:21.273Z,95536.00
2018-07-05T17:31:07.985Z,95527.00
2018-07-05T17:36:55.708Z,95540.00
2018-07-05T17:42:42.052Z,95546.00
2018-07-05T17:48:28.299Z,95548.00
2018-07-05T17:54:14.745Z,95554.00
2018-07-05T18:00:01.018Z,95559.00
2018-07-05T18:05:47.461Z,95569.00
2018-07-05T18:11:33.796Z,95566.00
2018-07-05T18:17:20.395Z,95568.00
2018-07-05T18:23:00.585Z,95570.00
2018-07-05T18:28:46.829Z,95572.00
2018-07-05T18:34:33.147Z,95573.00
2018-07-05T18:40:19.658Z,95569.00
2018-07-05T18:46:05.966Z,95576.00
2018-07-05T18:51:53.857Z,95578.00
2018-07-05T18:57:40.614Z,95576.00
2018-07-05T19:03:27.142Z,95579.00
2018-07-05T19:09:13.638Z,95592.00
2018-07-05T19:14:59.842Z,95588.00
2018-07-05T19:20:48.009Z,95591.00
2018-07-05T19:26:34.344Z,95590.00
2018-07-05T19:32:20.589Z,95593.00
2018-07-05T19:38:06.677Z,95606.00
2018-07-05T19:43:53.123Z,95607.00
2018-07-05T19:49:39.598Z,95615.00
2018-07-05T19:55:25.755Z,95617.00
2018-07-05T20:01:13.171Z,95633.00
2018-07-05T20:06:59.371Z,95630.00
2018-07-05T20:12:45.886Z,95644.00
2018-07-05T20:18:32.274Z,95668.00
2018-07-05T20:24:18.679Z,95664.00
2018-07-05T20:30:04.982Z,95673.00
2018-07-05T20:35:51.154Z,95667.00
2018-07-05T20:41:37.231Z,95666.00
2018-07-05T20:47:23.865Z,95663.00
2018-07-05T20:53:09.922Z,95662.00
2018-07-05T20:58:56.362Z,95670.00
2018-07-05T21:04:42.567Z,95663.00
2018-07-05T21:10:28.688Z,95669.00
2018-07-05T21:16:14.831Z,95662.00
2018-07-05T21:22:01.197Z,95671.00
2018-07-05T21:27:47.740Z,95663.00
2018-07-05T21:33:33.995Z,95660.00
2018-07-05T21:39:20.236Z,95662.00
2018-07-05T21:45:06.552Z,95662.00
2018-07-05T21:50:52.944Z,95664.00
2018-07-05T21:56:39.493Z,95660.00
2018-07-05T22:02:25.740Z,95648.00
2018-07-05T22:08:11.972Z,95654.00
2018-07-05T22:13:58.329Z,95659.00
2018-07-05T22:19:49.859Z,95658.00
2018-07-05T22:25:35.638Z,95656.00
2018-07-05T22:31:27.334Z,95659.00
2018-07-05T22:37:13.555Z,95654.00
2018-07-05T22:42:59.761Z,95648.00
2018-07-05T22:48:46.004Z,95648.00
2018-07-05T22:54:32.354Z,95644.00
2018-07-05T23:00:12.632Z,95648.00
2018-07-05T23:05:58.739Z,95647.00
2018-07-05T23:11:45.399Z,95650.00
2018-07-05T23:17:31.554Z,95653.00
2018-07-05T23:23:17.786Z,95643.00
2018-07-05T23:29:03.918Z,95642.00
2018-07-05T23:34:49.933Z,95645.00
2018-07-05T23:40:36.305Z,95635.00
2018-07-05T23:46:22.661Z,95647.00
2018-07-05T23:52:08.877Z,95636.00
2018-07-05T23:57:55.324Z,95644.00
